GBNKE EGNJ-EGNW
Flight info
| Callsign | GBNKE |
|---|---|
| Flight time | 0h 22m |
| Altitude | 2500 |
| Route | DCT |
| Aircraft | PA24/L-ICAO/7000 |
Departure
| Time | 2026-05-04 06:14 |
|---|---|
| Airport | Humberside Airport (EGNJ) |
Arrival
| Time | 2026-05-04 06:36 |
|---|---|
| Airport | Wickenby Aerodrome (EGNW) |
| Time | Latitude | Longitude | Altitude | Speed | Heading |
|---|---|---|---|---|---|
| 2026-05-04 05:59 | 53.57971 | -0.35081 | 77 ft | 0 kts | 297° |
| 2026-05-04 06:07 | 53.57971 | -0.35083 | 77 ft | 1 kts | 298° |
| 2026-05-04 06:07 | 53.57995 | -0.35099 | 77 ft | 5 kts | 347° |
| 2026-05-04 06:07 | 53.58027 | -0.35113 | 77 ft | 5 kts | 314° |
| 2026-05-04 06:08 | 53.58061 | -0.35153 | 77 ft | 6 kts | 356° |
| 2026-05-04 06:08 | 53.58100 | -0.35137 | 77 ft | 6 kts | 22° |
| 2026-05-04 06:08 | 53.58144 | -0.35107 | 77 ft | 7 kts | 22° |
| 2026-05-04 06:08 | 53.58190 | -0.35075 | 77 ft | 7 kts | 23° |
| 2026-05-04 06:09 | 53.58219 | -0.35017 | 77 ft | 6 kts | 84° |
| 2026-05-04 06:09 | 53.58201 | -0.34948 | 72 ft | 8 kts | 134° |
| 2026-05-04 06:11 | 53.57659 | -0.34945 | 96 ft | 14 kts | 208° |
| 2026-05-04 06:11 | 53.57565 | -0.35003 | 97 ft | 17 kts | 199° |
| 2026-05-04 06:13 | 53.57243 | -0.35209 | 104 ft | 0 kts | 17° |
| 2026-05-04 06:14 | 53.58900 | -0.34245 | 672 ft | 68 kts | 357° |
| 2026-05-04 06:14 | 53.59327 | -0.34601 | 891 ft | 72 kts | 312° |
| 2026-05-04 06:15 | 53.59443 | -0.35481 | 1090 ft | 84 kts | 266° |
| 2026-05-04 06:15 | 53.59145 | -0.36340 | 1270 ft | 93 kts | 228° |
| 2026-05-04 06:15 | 53.58588 | -0.37001 | 1419 ft | 98 kts | 204° |
| 2026-05-04 06:15 | 53.57917 | -0.37458 | 1483 ft | 110 kts | 200° |
| 2026-05-04 06:16 | 53.57204 | -0.37928 | 1610 ft | 111 kts | 197° |
| 2026-05-04 06:16 | 53.56457 | -0.38411 | 1628 ft | 117 kts | 201° |
| 2026-05-04 06:16 | 53.55697 | -0.38946 | 1680 ft | 121 kts | 203° |
| 2026-05-04 06:16 | 53.54931 | -0.39572 | 1706 ft | 125 kts | 204° |
| 2026-05-04 06:17 | 53.54116 | -0.40110 | 1747 ft | 125 kts | 193° |
| 2026-05-04 06:17 | 53.53264 | -0.40367 | 1763 ft | 125 kts | 186° |
| 2026-05-04 06:17 | 53.52402 | -0.40561 | 1792 ft | 126 kts | 184° |
| 2026-05-04 06:17 | 53.51655 | -0.40696 | 1789 ft | 128 kts | 183° |
| 2026-05-04 06:18 | 53.50785 | -0.40830 | 1824 ft | 128 kts | 181° |
| 2026-05-04 06:18 | 53.49888 | -0.40954 | 1820 ft | 130 kts | 180° |
| 2026-05-04 06:18 | 53.48993 | -0.40999 | 1857 ft | 129 kts | 178° |
| 2026-05-04 06:20 | 53.42658 | -0.41817 | 1829 ft | 132 kts | 190° |
| 2026-05-04 06:20 | 53.41766 | -0.42139 | 1827 ft | 133 kts | 188° |
| 2026-05-04 06:21 | 53.38479 | -0.42866 | 1838 ft | 108 kts | 178° |
| 2026-05-04 06:21 | 53.37719 | -0.42869 | 1841 ft | 108 kts | 168° |
| 2026-05-04 06:22 | 53.36996 | -0.42610 | 1824 ft | 106 kts | 158° |
| 2026-05-04 06:22 | 53.36309 | -0.42198 | 1837 ft | 104 kts | 150° |
| 2026-05-04 06:25 | 53.29728 | -0.33469 | 1666 ft | 97 kts | 55° |
| 2026-05-04 06:25 | 53.30193 | -0.32746 | 1550 ft | 89 kts | 33° |
| 2026-05-04 06:26 | 53.30738 | -0.32226 | 1382 ft | 90 kts | 28° |
| 2026-05-04 06:26 | 53.31330 | -0.31912 | 1252 ft | 91 kts | 6° |
| 2026-05-04 06:26 | 53.31953 | -0.32152 | 1098 ft | 96 kts | 329° |
| 2026-05-04 06:26 | 53.32323 | -0.33086 | 978 ft | 97 kts | 289° |
| 2026-05-04 06:27 | 53.31168 | -0.36798 | 1018 ft | 98 kts | 211° |
| 2026-05-04 06:28 | 53.30575 | -0.37366 | 1033 ft | 101 kts | 209° |
| 2026-05-04 06:28 | 53.29966 | -0.37929 | 1093 ft | 101 kts | 209° |
| 2026-05-04 06:28 | 53.29270 | -0.38184 | 1044 ft | 108 kts | 160° |
| 2026-05-04 06:28 | 53.28836 | -0.37325 | 1116 ft | 94 kts | 91° |
| 2026-05-04 06:29 | 53.29073 | -0.36415 | 986 ft | 89 kts | 27° |
| 2026-05-04 06:29 | 53.29668 | -0.36313 | 764 ft | 84 kts | 4° |
| 2026-05-04 06:29 | 53.30216 | -0.36102 | 529 ft | 77 kts | 25° |
| 2026-05-04 06:29 | 53.30665 | -0.35714 | 561 ft | 68 kts | 28° |
| 2026-05-04 06:30 | 53.31120 | -0.35350 | 555 ft | 71 kts | 23° |
| 2026-05-04 06:30 | 53.31569 | -0.35051 | 603 ft | 70 kts | 21° |
| 2026-05-04 06:30 | 53.32041 | -0.34994 | 658 ft | 72 kts | 339° |
| 2026-05-04 06:30 | 53.32290 | -0.35707 | 679 ft | 83 kts | 265° |
| 2026-05-04 06:31 | 53.31968 | -0.36508 | 805 ft | 81 kts | 225° |
| 2026-05-04 06:31 | 53.31513 | -0.37138 | 857 ft | 87 kts | 215° |
| 2026-05-04 06:31 | 53.31007 | -0.37702 | 916 ft | 89 kts | 213° |
| 2026-05-04 06:31 | 53.30501 | -0.38298 | 912 ft | 91 kts | 216° |
| 2026-05-04 06:32 | 53.29992 | -0.38941 | 913 ft | 93 kts | 218° |
| 2026-05-04 06:33 | 53.29060 | -0.37114 | 578 ft | 70 kts | 36° |
| 2026-05-04 06:34 | 53.29330 | -0.36806 | 538 ft | 70 kts | 29° |
| 2026-05-04 06:34 | 53.29912 | -0.36324 | 455 ft | 70 kts | 27° |
| 2026-05-04 06:34 | 53.30196 | -0.36081 | 399 ft | 70 kts | 26° |
| 2026-05-04 06:34 | 53.30638 | -0.35720 | 279 ft | 71 kts | 26° |
| 2026-05-04 06:35 | 53.31086 | -0.35365 | 160 ft | 70 kts | 27° |
| 2026-05-04 06:36 | 53.31871 | -0.34545 | 89 ft | 3 kts | 158° |
| 2026-05-04 06:37 | 53.31867 | -0.34545 | 89 ft | 0 kts | 200° |